Time;durP1;ratioP1;P1;durP2;ratioP2;P2;SDS_P1;SDS_P2;PMS_P1;PMS_P2;Temp;Humidity;BMP_temperature;BMP_pressure;BME280_temperature;BME280_humidity;BME280_pressure;Samples;Min_cycle;Max_cycle;Signal;HPM_P1;HPM_P2
2022/06/30 00:00:00;;;;;;;2.00;1.80;;;16.40;99.90;;;;;;5098172;28;20462;-87
2022/06/30 00:02:27;;;;;;;2.10;1.90;;;16.30;99.90;;;;;;5102884;28;20469;-86
2022/06/30 00:04:54;;;;;;;3.47;2.50;;;16.20;99.90;;;;;;5103133;28;20519;-84
2022/06/30 00:07:21;;;;;;;2.87;1.70;;;16.20;99.90;;;;;;5098241;28;20939;-83
2022/06/30 00:09:48;;;;;;;4.87;3.60;;;16.10;99.90;;;;;;5103567;28;20453;-86
2022/06/30 00:12:15;;;;;;;7.83;5.03;;;16.10;99.90;;;;;;5104243;28;20917;-87
2022/06/30 00:14:42;;;;;;;4.30;2.90;;;16.10;99.90;;;;;;5103659;28;20488;-85
2022/06/30 00:17:11;;;;;;;3.00;1.87;;;16.20;99.90;;;;;;5103957;28;20472;-86
2022/06/30 00:19:38;;;;;;;3.07;2.17;;;16.20;99.90;;;;;;5102866;28;20523;-85
2022/06/30 00:22:07;;;;;;;4.00;3.70;;;16.20;99.90;;;;;;5105446;28;20516;-86
2022/06/30 00:24:34;;;;;;;5.23;2.40;;;16.20;99.90;;;;;;5103864;28;20465;-86
2022/06/30 00:27:01;;;;;;;4.40;2.60;;;16.20;99.90;;;;;;5105700;28;21167;-84
2022/06/30 00:29:28;;;;;;;2.00;1.83;;;16.20;99.90;;;;;;5102220;28;20514;-86
2022/06/30 00:31:55;;;;;;;2.37;1.83;;;16.20;99.90;;;;;;5103303;28;20465;-86
2022/06/30 00:34:24;;;;;;;1.63;1.53;;;16.00;99.90;;;;;;5106115;28;20912;-84
2022/06/30 00:36:51;;;;;;;3.47;1.83;;;16.00;99.90;;;;;;5105764;28;20550;-86
2022/06/30 00:39:18;;;;;;;2.57;1.90;;;16.10;99.90;;;;;;5103897;28;20459;-86
2022/06/30 00:41:44;;;;;;;3.60;1.93;;;16.00;99.90;;;;;;5103792;28;20483;-84
2022/06/30 00:44:12;;;;;;;4.27;2.37;;;15.90;99.90;;;;;;5107028;28;20907;-85
2022/06/30 00:46:40;;;;;;;2.40;1.93;;;15.90;99.90;;;;;;5101782;28;20477;-85
2022/06/30 00:49:07;;;;;;;1.93;1.67;;;15.80;99.90;;;;;;5105638;28;20767;-84
2022/06/30 00:51:36;;;;;;;2.43;1.77;;;15.90;99.90;;;;;;5105404;28;20469;-85
2022/06/30 00:54:04;;;;;;;2.30;1.87;;;15.80;99.90;;;;;;5100662;28;20499;-86
2022/06/30 00:56:34;;;;;;;4.37;2.77;;;15.80;99.90;;;;;;5105650;28;21202;-85
2022/06/30 00:59:03;;;;;;;5.63;3.40;;;15.80;99.90;;;;;;5099299;28;20558;-84
2022/06/30 01:01:31;;;;;;;9.50;4.57;;;16.10;99.90;;;;;;5102729;28;20518;-85
2022/06/30 01:03:59;;;;;;;3.63;1.50;;;16.20;99.90;;;;;;5103279;28;20526;-84
2022/06/30 01:06:27;;;;;;;5.13;1.67;;;16.40;99.90;;;;;;5097480;28;21109;-86
2022/06/30 01:08:56;;;;;;;6.17;2.57;;;16.50;99.90;;;;;;5102764;28;20536;-84
2022/06/30 01:14:08;;;;;;;4.17;2.73;;;16.50;99.90;;;;;;5103801;28;20476;-85
2022/06/30 01:16:38;;;;;;;21.13;4.17;;;16.60;99.90;;;;;;5104034;28;21044;-87
2022/06/30 01:19:05;;;;;;;6.50;2.90;;;16.60;99.90;;;;;;5120407;28;20434;-85
2022/06/30 01:21:34;;;;;;;10.70;2.03;;;16.60;99.90;;;;;;5124066;28;20585;-86
2022/06/30 01:24:01;;;;;;;7.00;2.60;;;16.50;99.90;;;;;;5107967;28;20461;-85
2022/06/30 01:26:28;;;;;;;3.70;1.87;;;16.50;99.90;;;;;;5108316;28;20484;-85
2022/06/30 01:28:56;;;;;;;12.40;3.00;;;16.60;99.90;;;;;;5105497;28;20544;-86
2022/06/30 01:31:23;;;;;;;4.27;2.70;;;16.60;99.90;;;;;;5102306;28;21091;-84
2022/06/30 01:33:51;;;;;;;4.13;2.50;;;16.50;99.90;;;;;;5103311;28;20476;-87
2022/06/30 01:36:18;;;;;;;3.83;2.60;;;16.60;99.90;;;;;;5107245;28;20488;-85
2022/06/30 01:38:46;;;;;;;4.67;3.33;;;16.70;99.90;;;;;;5109399;27;20536;-87
2022/06/30 01:41:15;;;;;;;2.97;2.10;;;16.60;99.90;;;;;;5102919;28;20549;-85
2022/06/30 01:43:42;;;;;;;2.43;2.17;;;16.60;99.90;;;;;;5102534;28;20473;-84
2022/06/30 01:46:09;;;;;;;3.30;2.27;;;16.70;99.90;;;;;;5104160;28;20505;-87
2022/06/30 01:48:37;;;;;;;5.93;3.10;;;16.80;99.90;;;;;;5103485;28;20522;-86
2022/06/30 01:51:04;;;;;;;5.60;2.27;;;16.80;99.90;;;;;;5106436;28;20549;-85
2022/06/30 01:53:31;;;;;;;9.37;3.90;;;16.90;99.90;;;;;;5102206;28;20513;-86
2022/06/30 01:55:59;;;;;;;5.97;3.67;;;16.70;99.90;;;;;;5106486;28;20480;-85
2022/06/30 01:58:26;;;;;;;9.70;3.93;;;16.80;99.90;;;;;;5103421;28;20469;-85
2022/06/30 02:00:53;;;;;;;10.00;4.43;;;16.80;99.90;;;;;;5105895;28;20513;-85
2022/06/30 02:03:20;;;;;;;6.57;4.80;;;16.80;99.90;;;;;;5104340;28;21180;-84
2022/06/30 02:05:47;;;;;;;8.70;4.63;;;16.80;99.90;;;;;;5106797;28;20477;-86
2022/06/30 02:08:14;;;;;;;5.60;3.10;;;16.70;99.90;;;;;;5103358;28;20481;-86
2022/06/30 02:10:41;;;;;;;5.07;2.80;;;16.90;99.90;;;;;;5102162;28;20546;-86
2022/06/30 02:13:10;;;;;;;9.00;5.50;;;16.90;99.90;;;;;;5102445;28;20466;-85
2022/06/30 02:15:37;;;;;;;12.37;4.67;;;16.90;99.90;;;;;;5103825;28;20489;-84
2022/06/30 02:18:06;;;;;;;5.40;3.20;;;16.90;99.90;;;;;;5103781;28;20494;-86
2022/06/30 02:20:33;;;;;;;6.93;4.23;;;16.90;99.90;;;;;;5102128;28;21203;-85
2022/06/30 02:23:02;;;;;;;9.00;3.80;;;16.90;99.90;;;;;;5105872;28;20523;-85
2022/06/30 02:25:31;;;;;;;7.83;3.10;;;16.90;99.90;;;;;;5099206;28;20470;-86
2022/06/30 02:27:59;;;;;;;3.93;2.90;;;16.90;99.90;;;;;;5101122;28;20975;-86
2022/06/30 02:30:27;;;;;;;9.97;5.17;;;16.90;99.90;;;;;;5100142;28;20949;-84
2022/06/30 02:32:55;;;;;;;5.17;2.80;;;16.90;99.90;;;;;;5103110;28;20458;-85
2022/06/30 02:35:22;;;;;;;7.40;3.80;;;16.90;99.90;;;;;;5104359;28;20469;-84
2022/06/30 02:37:49;;;;;;;13.27;2.60;;;16.90;99.90;;;;;;5105058;28;20988;-84
2022/06/30 02:40:17;;;;;;;9.83;3.93;;;16.90;99.90;;;;;;5103465;28;20531;-86
2022/06/30 02:42:45;;;;;;;13.17;3.83;;;16.90;99.90;;;;;;5105377;28;20446;-86
2022/06/30 02:45:12;;;;;;;16.87;4.93;;;16.80;99.90;;;;;;5103380;28;20998;-86
2022/06/30 02:47:42;;;;;;;9.27;3.80;;;16.90;99.90;;;;;;5104810;28;21148;-84
2022/06/30 02:50:11;;;;;;;12.20;4.40;;;16.90;99.90;;;;;;5103606;27;20523;-85
2022/06/30 02:52:39;;;;;;;11.33;3.77;;;16.80;99.90;;;;;;5103795;28;20473;-84
2022/06/30 02:55:08;;;;;;;8.73;4.50;;;16.80;99.90;;;;;;5100113;28;20463;-84
2022/06/30 02:57:36;;;;;;;12.60;4.33;;;16.90;99.90;;;;;;5104373;28;20552;-84
2022/06/30 03:00:05;;;;;;;4.40;1.97;;;17.00;99.90;;;;;;5103237;28;20462;-85
2022/06/30 03:02:32;;;;;;;5.47;3.40;;;16.90;99.90;;;;;;5100669;28;20458;-84
2022/06/30 03:05:00;;;;;;;21.80;5.03;;;16.80;99.90;;;;;;5113988;28;20484;-83
2022/06/30 03:07:27;;;;;;;5.83;3.83;;;16.80;99.90;;;;;;5124276;28;20466;-85
2022/06/30 03:09:54;;;;;;;6.50;3.07;;;16.70;99.90;;;;;;5100822;28;20463;-85
2022/06/30 03:12:21;;;;;;;10.80;4.20;;;16.70;99.90;;;;;;5107137;28;20543;-85
2022/06/30 03:14:48;;;;;;;11.20;3.87;;;16.60;99.90;;;;;;5102480;28;20555;-86
2022/06/30 03:17:15;;;;;;;17.00;4.47;;;16.60;99.90;;;;;;5102163;28;20521;-84
2022/06/30 03:19:42;;;;;;;13.30;4.17;;;16.60;99.90;;;;;;5101356;28;20471;-83
2022/06/30 03:22:11;;;;;;;6.13;4.00;;;16.60;99.90;;;;;;5102716;28;20465;-86
2022/06/30 03:24:38;;;;;;;12.00;3.60;;;16.60;99.90;;;;;;5101619;28;20554;-84
2022/06/30 03:27:06;;;;;;;5.63;3.17;;;16.70;99.90;;;;;;5102571;28;22327;-85
2022/06/30 03:29:32;;;;;;;7.57;3.87;;;16.70;99.90;;;;;;5101414;28;20469;-85
2022/06/30 03:32:00;;;;;;;6.70;4.70;;;16.80;99.90;;;;;;5100013;28;20459;-86
2022/06/30 03:34:27;;;;;;;9.50;3.63;;;17.00;99.90;;;;;;5103595;28;20458;-86
2022/06/30 03:36:54;;;;;;;6.47;4.23;;;16.90;99.90;;;;;;5102520;28;20598;-84
2022/06/30 03:39:22;;;;;;;6.63;3.30;;;16.90;99.90;;;;;;5102746;28;20454;-86
2022/06/30 03:41:49;;;;;;;7.30;4.63;;;17.00;99.90;;;;;;5101232;28;20454;-84
2022/06/30 03:44:16;;;;;;;9.77;4.80;;;17.10;99.90;;;;;;5098339;28;20520;-84
2022/06/30 03:46:43;;;;;;;8.93;3.87;;;17.10;99.90;;;;;;5101060;28;21116;-83
2022/06/30 03:49:10;;;;;;;3.83;2.87;;;17.10;99.90;;;;;;5100247;28;21069;-85
2022/06/30 03:51:37;;;;;;;10.57;3.70;;;17.10;99.90;;;;;;5098782;28;20462;-85
2022/06/30 03:54:04;;;;;;;7.13;3.87;;;17.30;99.90;;;;;;5102721;28;20470;-84
2022/06/30 03:56:32;;;;;;;10.97;4.97;;;17.30;99.90;;;;;;5096060;28;20536;-84
2022/06/30 03:58:59;;;;;;;6.67;4.40;;;17.20;99.90;;;;;;5093395;28;20469;-85
2022/06/30 04:01:27;;;;;;;8.80;3.37;;;17.10;99.90;;;;;;5094495;28;20490;-86
2022/06/30 04:03:54;;;;;;;6.97;3.57;;;17.10;99.90;;;;;;5095990;28;20458;-85
2022/06/30 04:06:23;;;;;;;8.63;5.20;;;17.20;99.90;;;;;;5098686;28;20530;-85
2022/06/30 04:08:50;;;;;;;9.87;3.53;;;17.10;99.90;;;;;;5097053;28;20465;-86
2022/06/30 04:11:17;;;;;;;7.23;3.80;;;17.10;99.90;;;;;;5094827;28;20461;-86
2022/06/30 04:13:45;;;;;;;10.73;6.03;;;17.20;99.90;;;;;;5096967;28;21007;-86
2022/06/30 04:16:12;;;;;;;9.53;3.77;;;17.10;99.90;;;;;;5097902;28;20481;-84
2022/06/30 04:18:39;;;;;;;8.40;4.60;;;17.20;99.90;;;;;;5099218;28;21279;-85
2022/06/30 04:21:06;;;;;;;6.97;3.87;;;17.10;99.90;;;;;;5094830;28;20478;-86
2022/06/30 04:23:33;;;;;;;3.70;3.30;;;17.30;99.90;;;;;;5100854;28;20454;-85
2022/06/30 04:26:00;;;;;;;18.97;3.43;;;17.40;99.90;;;;;;5098612;28;20491;-84
2022/06/30 04:28:27;;;;;;;5.50;3.43;;;17.40;99.90;;;;;;5099411;28;20460;-86
2022/06/30 04:33:40;;;;;;;5.60;3.53;;;17.60;99.90;;;;;;5097913;28;20452;-86
2022/06/30 04:36:07;;;;;;;4.80;3.33;;;17.60;99.90;;;;;;5089074;28;20575;-84
2022/06/30 04:38:34;;;;;;;16.27;4.43;;;17.60;99.90;;;;;;5090886;28;20462;-86
2022/06/30 04:43:45;;;;;;;13.73;5.03;;;17.50;99.90;;;;;;5095699;28;20457;-86
2022/06/30 04:46:13;;;;;;;6.47;3.90;;;17.40;99.90;;;;;;5096380;28;20486;-85
2022/06/30 04:48:40;;;;;;;6.87;3.10;;;17.40;99.90;;;;;;5098362;28;20523;-87
2022/06/30 04:51:08;;;;;;;8.70;3.50;;;17.60;99.90;;;;;;5102396;28;20976;-87
2022/06/30 04:53:35;;;;;;;7.03;3.07;;;17.50;99.90;;;;;;5100639;28;20800;-88
2022/06/30 04:56:02;;;;;;;12.17;4.40;;;17.50;99.90;;;;;;5102409;28;20866;-85
2022/06/30 04:58:29;;;;;;;11.33;4.40;;;17.40;99.90;;;;;;5104553;28;20852;-87
2022/06/30 05:00:56;;;;;;;5.90;4.00;;;17.40;99.90;;;;;;5103008;28;20543;-88
2022/06/30 05:03:25;;;;;;;8.77;3.60;;;17.70;99.90;;;;;;5097146;28;20469;-85
2022/06/30 05:05:53;;;;;;;8.87;3.57;;;17.80;99.90;;;;;;5106816;28;20462;-87
2022/06/30 05:08:20;;;;;;;6.20;3.03;;;17.70;99.90;;;;;;5099819;28;20530;-87
2022/06/30 05:10:47;;;;;;;7.37;3.60;;;17.90;99.90;;;;;;5105770;28;20533;-87
2022/06/30 05:13:15;;;;;;;8.63;4.27;;;18.00;99.90;;;;;;5103586;28;20522;-85
2022/06/30 05:15:42;;;;;;;5.20;3.97;;;17.90;99.90;;;;;;5102224;28;20469;-85
2022/06/30 05:18:09;;;;;;;5.37;3.70;;;17.90;99.90;;;;;;5102103;28;21074;-86
2022/06/30 05:20:37;;;;;;;13.33;4.47;;;18.10;99.90;;;;;;5099437;28;20863;-87
2022/06/30 05:23:05;;;;;;;6.30;4.17;;;18.00;99.90;;;;;;5107403;28;20463;-85
2022/06/30 05:28:17;;;;;;;4.83;3.37;;;17.90;99.90;;;;;;5103716;28;20502;-87
2022/06/30 05:30:44;;;;;;;4.90;4.00;;;17.80;99.90;;;;;;5098484;28;20554;-86
2022/06/30 05:33:11;;;;;;;5.77;3.43;;;17.90;99.90;;;;;;5102978;28;20466;-86
2022/06/30 05:35:42;;;;;;;8.87;4.80;;;18.00;99.90;;;;;;5103156;28;21052;-85
2022/06/30 05:38:09;;;;;;;7.10;3.23;;;18.20;99.90;;;;;;5105412;28;20616;-86
2022/06/30 05:40:36;;;;;;;7.40;2.90;;;18.10;99.90;;;;;;5103489;27;20462;-85
2022/06/30 05:43:03;;;;;;;7.10;4.10;;;18.20;99.90;;;;;;5095925;27;20523;-85
2022/06/30 05:45:30;;;;;;;7.20;4.20;;;18.20;99.90;;;;;;5103312;28;20577;-85
2022/06/30 05:47:57;;;;;;;7.43;3.37;;;18.30;99.90;;;;;;5106170;28;20523;-84
2022/06/30 05:50:24;;;;;;;6.10;3.47;;;18.30;99.90;;;;;;5102320;27;20451;-85
2022/06/30 05:52:52;;;;;;;5.00;3.17;;;18.30;99.90;;;;;;5095067;28;20504;-85
2022/06/30 05:55:19;;;;;;;5.67;3.67;;;18.50;99.90;;;;;;5098698;27;21015;-85
2022/06/30 05:57:54;;;;;;;6.60;2.97;;;18.50;99.90;;;;;;5103553;28;20478;-85
2022/06/30 06:00:21;;;;;;;8.33;5.27;;;18.60;99.90;;;;;;5115968;28;20478;-86
2022/06/30 06:02:49;;;;;;;5.17;3.20;;;18.90;99.90;;;;;;5126940;27;20538;-85
2022/06/30 06:05:16;;;;;;;6.07;4.00;;;18.90;99.90;;;;;;5121213;28;20458;-84
2022/06/30 06:07:44;;;;;;;2.50;1.93;;;18.90;99.90;;;;;;5111892;28;20447;-85
2022/06/30 06:10:14;;;;;;;3.30;2.50;;;18.80;99.90;;;;;;5105189;28;20463;-83
2022/06/30 06:12:43;;;;;;;4.37;2.43;;;18.90;99.90;;;;;;5103271;27;20496;-86
2022/06/30 06:15:10;;;;;;;3.73;2.50;;;18.80;99.90;;;;;;5103582;28;20462;-86
2022/06/30 06:17:41;;;;;;;5.40;2.33;;;18.70;99.90;;;;;;5093969;28;20484;-85
2022/06/30 06:20:10;;;;;;;3.97;2.57;;;19.10;99.90;;;;;;5101124;28;20474;-85
2022/06/30 06:22:37;;;;;;;2.33;2.00;;;19.10;99.90;;;;;;5100684;28;20456;-85
2022/06/30 06:25:05;;;;;;;2.20;1.37;;;19.20;99.90;;;;;;5099286;28;20513;-86
2022/06/30 06:27:34;;;;;;;2.30;1.83;;;19.50;99.90;;;;;;5106092;28;20506;-85
2022/06/30 06:30:04;;;;;;;2.13;1.83;;;19.70;99.90;;;;;;5103207;28;20953;-85
2022/06/30 06:32:31;;;;;;;1.73;1.57;;;19.70;99.90;;;;;;5094978;28;20970;-85
2022/06/30 06:34:58;;;;;;;2.13;1.93;;;20.10;99.90;;;;;;5092580;28;20459;-87
2022/06/30 06:37:25;;;;;;;3.83;3.57;;;20.50;99.90;;;;;;5094264;28;20987;-87
2022/06/30 06:39:52;;;;;;;2.27;2.07;;;20.60;99.90;;;;;;5105979;28;20516;-85
2022/06/30 06:42:19;;;;;;;2.80;1.40;;;20.70;99.90;;;;;;5104963;28;20454;-87
2022/06/30 06:44:48;;;;;;;2.33;1.67;;;20.30;99.90;;;;;;5101575;28;20470;-85
2022/06/30 06:47:16;;;;;;;3.40;2.37;;;20.40;99.90;;;;;;5097628;28;20462;-86
2022/06/30 06:49:44;;;;;;;2.40;2.17;;;20.40;99.90;;;;;;5096185;28;20470;-84
2022/06/30 06:52:11;;;;;;;2.23;1.70;;;20.30;99.90;;;;;;5095111;28;20461;-87
2022/06/30 06:54:38;;;;;;;1.73;1.63;;;20.20;99.90;;;;;;5104600;28;20473;-86
2022/06/30 06:57:06;;;;;;;1.80;1.53;;;20.30;99.90;;;;;;5105085;28;20489;-87
2022/06/30 06:59:34;;;;;;;4.07;3.23;;;20.20;99.90;;;;;;5097655;28;20466;-86
2022/06/30 07:02:02;;;;;;;2.30;1.90;;;20.30;99.90;;;;;;5100316;28;20785;-86
2022/06/30 07:04:29;;;;;;;2.47;2.27;;;20.40;99.90;;;;;;5104802;28;20572;-87
2022/06/30 07:06:57;;;;;;;2.93;1.90;;;20.50;99.90;;;;;;5091956;28;20490;-87
2022/06/30 07:09:24;;;;;;;2.03;1.83;;;20.60;99.90;;;;;;5097104;28;20465;-86
2022/06/30 07:11:51;;;;;;;3.00;2.70;;;20.70;99.90;;;;;;5099085;28;20465;-86
2022/06/30 07:14:18;;;;;;;2.00;1.80;;;20.70;99.90;;;;;;5103718;28;20519;-85
2022/06/30 07:16:45;;;;;;;2.27;1.83;;;20.40;99.90;;;;;;5101838;28;20543;-86
2022/06/30 07:19:13;;;;;;;3.30;1.77;;;20.60;99.90;;;;;;5101192;28;20472;-86
2022/06/30 07:21:41;;;;;;;1.90;1.80;;;20.80;99.90;;;;;;5096992;28;20486;-86
2022/06/30 07:24:08;;;;;;;2.40;2.10;;;21.00;99.90;;;;;;5100021;28;20490;-86
2022/06/30 07:26:35;;;;;;;1.40;1.30;;;21.00;99.90;;;;;;5103364;28;20515;-86
2022/06/30 07:29:02;;;;;;;2.77;2.40;;;21.00;99.90;;;;;;5101792;28;20507;-86
2022/06/30 07:31:29;;;;;;;1.97;1.73;;;21.40;99.90;;;;;;5102006;28;20464;-86
2022/06/30 07:33:56;;;;;;;3.07;2.37;;;21.50;99.90;;;;;;5105241;28;20474;-87
2022/06/30 07:36:24;;;;;;;2.13;1.40;;;21.40;99.90;;;;;;5101047;28;20462;-87
2022/06/30 07:38:52;;;;;;;1.80;1.70;;;21.40;99.90;;;;;;5100401;28;20546;-87
2022/06/30 07:41:19;;;;;;;2.23;1.80;;;21.70;99.90;;;;;;5098318;28;20540;-85
2022/06/30 07:43:47;;;;;;;1.20;1.10;;;21.50;99.90;;;;;;5097412;28;20458;-85
2022/06/30 07:46:14;;;;;;;2.10;1.57;;;21.70;99.90;;;;;;5101164;28;20518;-86
2022/06/30 07:48:42;;;;;;;3.20;2.73;;;21.80;99.90;;;;;;5103552;28;20472;-86
2022/06/30 07:51:09;;;;;;;1.20;1.10;;;21.90;99.90;;;;;;5096872;28;20460;-86
2022/06/30 07:53:37;;;;;;;5.47;2.00;;;21.90;99.90;;;;;;5096176;28;20470;-87
2022/06/30 07:56:05;;;;;;;2.23;2.03;;;22.30;99.90;;;;;;5096293;28;20977;-86
2022/06/30 07:58:33;;;;;;;2.20;1.80;;;22.20;99.90;;;;;;5104911;28;20538;-86
2022/06/30 08:01:00;;;;;;;2.80;2.10;;;22.10;99.90;;;;;;5101319;28;20493;-85
2022/06/30 08:03:27;;;;;;;2.73;1.97;;;22.20;99.90;;;;;;5104758;28;20442;-85
2022/06/30 08:05:55;;;;;;;1.83;1.70;;;22.00;99.90;;;;;;5099896;28;20965;-86
2022/06/30 08:08:22;;;;;;;2.70;1.70;;;21.90;99.90;;;;;;5102421;28;20570;-85
2022/06/30 08:10:51;;;;;;;4.90;1.97;;;21.80;99.90;;;;;;5101701;28;20474;-85
2022/06/30 08:13:18;;;;;;;2.23;1.67;;;21.70;99.90;;;;;;5101115;28;20521;-84
2022/06/30 08:15:45;;;;;;;2.07;1.70;;;21.90;99.90;;;;;;5102346;28;20510;-87
2022/06/30 08:18:12;;;;;;;3.57;2.50;;;22.10;99.90;;;;;;5096487;28;21179;-85
2022/06/30 08:20:40;;;;;;;2.03;1.93;;;22.20;99.90;;;;;;5100478;28;20482;-85
2022/06/30 08:23:07;;;;;;;3.43;3.13;;;22.70;99.90;;;;;;5100467;28;20442;-86
2022/06/30 08:25:34;;;;;;;1.83;1.73;;;23.10;99.90;;;;;;5104175;28;20812;-84
2022/06/30 08:28:04;;;;;;;2.77;2.07;;;23.40;99.90;;;;;;5102231;28;21247;-86
2022/06/30 08:30:31;;;;;;;2.70;2.50;;;24.20;99.90;;;;;;5105142;28;20468;-85
2022/06/30 08:32:58;;;;;;;3.23;2.93;;;24.60;99.90;;;;;;5104876;28;20874;-87
2022/06/30 08:35:25;;;;;;;2.23;2.03;;;23.90;99.90;;;;;;5104925;28;20454;-85
2022/06/30 08:37:52;;;;;;;3.80;2.00;;;23.70;99.90;;;;;;5107337;28;20484;-86
2022/06/30 08:43:06;;;;;;;3.70;2.90;;;23.00;99.90;;;;;;5096353;27;20457;-87
2022/06/30 08:45:34;;;;;;;4.63;3.10;;;23.00;99.90;;;;;;5100401;27;20461;-84
2022/06/30 08:48:01;;;;;;;4.50;3.57;;;22.70;99.90;;;;;;5095437;28;20470;-87
2022/06/30 08:50:28;;;;;;;4.37;2.80;;;22.50;99.90;;;;;;5100628;27;21117;-86
2022/06/30 08:52:58;;;;;;;3.43;2.80;;;22.70;99.90;;;;;;5098287;28;20458;-86
2022/06/30 08:55:27;;;;;;;3.57;2.17;;;22.90;99.90;;;;;;5108439;27;20589;-88
2022/06/30 08:57:58;;;;;;;2.87;1.83;;;23.90;99.90;;;;;;5116524;27;20486;-85
2022/06/30 09:00:27;;;;;;;3.17;2.33;;;24.50;99.90;;;;;;5109119;27;20464;-86
2022/06/30 09:02:54;;;;;;;5.33;4.53;;;24.40;99.90;;;;;;5110376;27;20491;-87
2022/06/30 09:05:21;;;;;;;3.20;2.57;;;24.60;99.90;;;;;;5098886;28;20841;-87
2022/06/30 09:07:48;;;;;;;2.53;2.30;;;25.10;99.90;;;;;;5099356;27;20491;-87
2022/06/30 09:10:15;;;;;;;4.30;2.97;;;25.40;99.90;;;;;;5099753;27;20870;-89
2022/06/30 09:12:56;;;;;;;3.97;2.60;;;25.20;99.90;;;;;;5101499;28;20466;-86
2022/06/30 09:15:23;;;;;;;4.57;2.23;;;24.40;99.90;;;;;;5103394;28;20466;-86
2022/06/30 09:17:53;;;;;;;3.80;2.47;;;24.30;99.90;;;;;;5097712;27;21109;-88
2022/06/30 09:20:32;;;;;;;2.87;2.67;;;24.30;99.90;;;;;;5099693;27;20489;-87
2022/06/30 09:22:59;;;;;;;3.10;2.50;;;24.20;99.90;;;;;;5101846;28;20597;-88
2022/06/30 09:25:31;;;;;;;2.47;2.23;;;24.10;99.90;;;;;;5102259;28;21153;-89
2022/06/30 09:27:58;;;;;;;2.27;2.07;;;23.90;99.90;;;;;;5099921;28;20486;-87
2022/06/30 09:30:26;;;;;;;2.23;1.73;;;23.50;99.90;;;;;;5104985;27;20545;-88
2022/06/30 09:32:56;;;;;;;2.50;2.30;;;23.30;99.90;;;;;;5093949;28;21134;-88
2022/06/30 09:35:25;;;;;;;2.67;2.00;;;23.10;99.90;;;;;;5100215;28;20543;-89
2022/06/30 09:38:03;;;;;;;3.30;2.93;;;23.30;99.90;;;;;;5095748;27;20486;-90
2022/06/30 09:40:33;;;;;;;1.73;1.63;;;23.40;99.90;;;;;;5098055;28;21204;-85
2022/06/30 09:43:01;;;;;;;3.30;2.20;;;23.60;99.90;;;;;;5095257;28;20450;-85
2022/06/30 09:45:39;;;;;;;3.23;3.03;;;23.40;99.90;;;;;;5102924;28;20462;-87
2022/06/30 09:48:08;;;;;;;3.30;2.23;;;23.90;99.90;;;;;;5099313;28;20462;-87
2022/06/30 09:50:36;;;;;;;2.80;2.60;;;24.10;99.90;;;;;;5101753;28;20466;-86
2022/06/30 09:53:11;;;;;;;2.70;2.33;;;23.90;99.90;;;;;;5103429;28;20473;-86
2022/06/30 09:55:40;;;;;;;2.40;2.20;;;23.90;99.90;;;;;;5102114;28;20700;-87
2022/06/30 09:58:08;;;;;;;2.90;1.60;;;24.00;99.90;;;;;;5100110;28;20474;-88
2022/06/30 10:00:46;;;;;;;5.10;3.37;;;24.40;99.90;;;;;;5097374;28;20527;-86
2022/06/30 10:03:16;;;;;;;7.20;2.60;;;24.40;99.90;;;;;;5105457;28;20457;-85
2022/06/30 10:05:44;;;;;;;3.70;3.40;;;24.80;99.90;;;;;;5098713;28;20467;-86
2022/06/30 10:08:12;;;;;;;3.33;1.83;;;24.80;99.90;;;;;;5105847;28;20473;-86
2022/06/30 10:10:41;;;;;;;3.43;1.30;;;24.80;99.90;;;;;;5101492;28;20472;-87
2022/06/30 10:13:12;;;;;;;1.27;1.17;;;24.90;99.90;;;;;;5098976;28;20942;-89
2022/06/30 10:15:41;;;;;;;2.47;2.03;;;25.00;99.90;;;;;;5094271;28;20454;-86
2022/06/30 10:18:10;;;;;;;2.07;1.87;;;25.40;99.90;;;;;;5106708;28;20999;-87
2022/06/30 10:20:39;;;;;;;2.40;2.20;;;25.40;99.90;;;;;;5100671;28;20521;-87
2022/06/30 10:23:09;;;;;;;5.60;2.97;;;25.30;99.90;;;;;;5101081;27;20553;-88
2022/06/30 10:25:37;;;;;;;2.43;1.63;;;25.50;99.90;;;;;;5100054;28;20874;-88
2022/06/30 10:28:05;;;;;;;1.27;1.13;;;25.40;99.90;;;;;;5101069;28;21234;-87
2022/06/30 10:30:43;;;;;;;5.40;1.93;;;25.20;99.90;;;;;;5102182;28;20454;-88
2022/06/30 10:33:19;;;;;;;1.37;1.27;;;25.40;99.90;;;;;;5102439;28;20462;-88
2022/06/30 10:36:05;;;;;;;2.93;1.77;;;25.40;99.90;;;;;;5100951;28;20511;-88
2022/06/30 10:38:36;;;;;;;3.63;1.80;;;25.50;99.90;;;;;;5104583;28;20481;-88
2022/06/30 10:41:10;;;;;;;3.47;1.83;;;25.30;99.90;;;;;;5103940;28;20514;-88
2022/06/30 10:44:21;;;;;;;8.73;2.07;;;25.30;99.90;;;;;;5099193;28;20523;-86
2022/06/30 10:47:08;;;;;;;3.37;1.20;;;25.40;99.90;;;;;;5098939;28;20541;-87
2022/06/30 10:49:55;;;;;;;2.53;1.60;;;25.70;99.90;;;;;;5101650;28;20470;-88
2022/06/30 10:52:27;;;;;;;1.93;1.27;;;25.30;99.90;;;;;;5102175;28;20458;-90
2022/06/30 10:55:05;;;;;;;2.80;1.17;;;25.30;99.90;;;;;;5104882;28;20441;-86
2022/06/30 10:58:01;;;;;;;1.40;1.30;;;25.90;99.90;;;;;;5103519;28;20430;-88
2022/06/30 11:00:50;;;;;;;1.47;1.20;;;26.40;99.90;;;;;;5102486;28;20826;-87
2022/06/30 11:03:59;;;;;;;1.20;1.10;;;26.40;99.90;;;;;;5098592;28;20446;-88
2022/06/30 11:07:08;;;;;;;1.73;1.20;;;26.20;99.50;;;;;;5102218;28;20886;-87
2022/06/30 11:10:02;;;;;;;3.27;1.00;;;26.30;99.90;;;;;;5095308;28;20460;-86
2022/06/30 11:12:58;;;;;;;0.87;0.80;;;26.80;97.90;;;;;;5090083;28;20487;-87
2022/06/30 11:15:57;;;;;;;1.60;0.70;;;26.60;99.60;;;;;;5100049;27;20513;-90
2022/06/30 11:18:26;;;;;;;0.87;0.87;;;26.90;97.40;;;;;;5100303;28;21031;-88
2022/06/30 11:20:55;;;;;;;2.30;1.30;;;27.10;97.90;;;;;;5098106;28;20891;-88
2022/06/30 11:23:22;;;;;;;1.63;1.37;;;27.00;98.50;;;;;;5092791;27;21022;-86
2022/06/30 11:28:44;;;;;;;1.63;1.00;;;27.10;98.20;;;;;;5102751;28;20468;-87
2022/06/30 11:31:27;;;;;;;1.30;1.03;;;27.50;98.10;;;;;;5100303;28;20898;-86
2022/06/30 11:33:57;;;;;;;1.30;1.07;;;27.70;99.50;;;;;;5100810;28;20466;-87
2022/06/30 11:36:24;;;;;;;2.33;1.53;;;27.30;98.50;;;;;;5100664;28;20454;-87
2022/06/30 11:38:56;;;;;;;2.67;1.30;;;27.60;99.00;;;;;;5100783;28;20559;-87
2022/06/30 11:44:11;;;;;;;1.63;1.10;;;28.10;97.80;;;;;;5104424;28;20456;-90
2022/06/30 11:46:50;;;;;;;1.30;1.20;;;28.20;97.30;;;;;;5099608;28;20478;-89
2022/06/30 11:49:17;;;;;;;1.10;0.90;;;28.20;96.10;;;;;;5097305;28;20611;-88
2022/06/30 11:51:45;;;;;;;2.73;1.03;;;28.10;96.80;;;;;;5111378;28;20454;-94
2022/06/30 11:54:28;;;;;;;1.10;1.00;;;28.00;96.00;;;;;;5112735;28;20450;-96
2022/06/30 11:57:00;;;;;;;1.37;1.10;;;27.70;96.20;;;;;;5116717;28;22548;-90
2022/06/30 11:59:28;;;;;;;3.77;1.13;;;27.90;97.50;;;;;;5105578;28;20843;-91
2022/06/30 12:02:04;;;;;;;1.33;1.20;;;28.10;99.50;;;;;;5097312;28;21022;-90
2022/06/30 12:04:32;;;;;;;2.10;1.10;;;28.10;96.40;;;;;;5104468;28;20491;-91
2022/06/30 12:07:00;;;;;;;1.33;1.23;;;28.10;96.80;;;;;;5097175;28;21238;-91
2022/06/30 12:09:27;;;;;;;1.33;1.23;;;28.00;97.10;;;;;;5099698;28;20473;-89
2022/06/30 12:11:55;;;;;;;1.40;1.30;;;28.30;97.00;;;;;;5102997;28;20442;-90
2022/06/30 12:14:22;;;;;;;3.07;1.33;;;28.40;98.80;;;;;;5104945;28;20555;-90
2022/06/30 12:16:55;;;;;;;1.17;1.07;;;28.80;98.50;;;;;;5097881;28;21021;-89
2022/06/30 12:19:22;;;;;;;1.73;1.13;;;29.20;99.00;;;;;;5101444;28;20513;-90
2022/06/30 12:21:50;;;;;;;1.17;0.90;;;29.10;97.10;;;;;;5095201;27;21193;-89
2022/06/30 12:24:18;;;;;;;1.27;1.10;;;29.20;95.10;;;;;;5101624;27;20457;-90
2022/06/30 12:26:50;;;;;;;1.67;1.57;;;28.80;93.30;;;;;;5092848;27;20468;-88
2022/06/30 12:29:17;;;;;;;1.73;1.30;;;28.40;94.80;;;;;;5091088;27;20470;-87
2022/06/30 12:31:59;;;;;;;1.03;0.93;;;28.90;97.00;;;;;;5095952;27;20496;-88
2022/06/30 12:35:06;;;;;;;2.10;1.73;;;28.50;94.60;;;;;;5103751;27;20460;-90
2022/06/30 12:37:35;;;;;;;1.33;1.23;;;28.60;94.00;;;;;;5095856;27;20579;-91
2022/06/30 12:40:04;;;;;;;0.90;0.73;;;28.60;94.90;;;;;;5101977;27;20478;-90
2022/06/30 12:42:41;;;;;;;1.20;0.80;;;28.90;96.50;;;;;;5095190;27;20488;-91
2022/06/30 12:45:37;;;;;;;1.80;0.80;;;29.00;98.00;;;;;;5101168;27;20462;-91
2022/06/30 12:48:08;;;;;;;2.87;1.50;;;29.20;95.20;;;;;;5097056;27;20527;-92
2022/06/30 12:50:36;;;;;;;1.43;1.33;;;29.30;95.80;;;;;;5100534;28;20466;-90
2022/06/30 12:53:16;;;;;;;2.70;1.37;;;29.60;96.80;;;;;;5105157;28;20449;-90
2022/06/30 12:55:59;;;;;;;2.00;1.20;;;29.50;94.80;;;;;;5099862;28;20493;-89
2022/06/30 12:58:27;;;;;;;1.50;1.00;;;29.40;94.30;;;;;;5096517;27;20454;-90
2022/06/30 13:00:58;;;;;;;1.43;0.90;;;28.90;93.30;;;;;;5102367;27;20462;-90
2022/06/30 13:03:26;;;;;;;1.37;1.27;;;28.80;92.80;;;;;;5101806;28;20470;-89
2022/06/30 13:05:53;;;;;;;1.00;0.87;;;29.10;94.40;;;;;;5101132;28;20487;-89
2022/06/30 13:08:20;;;;;;;2.10;1.47;;;29.20;91.70;;;;;;5103388;28;20445;-90
2022/06/30 13:13:32;;;;;;;1.20;1.10;;;29.20;92.70;;;;;;5106654;28;20620;-90
2022/06/30 13:15:59;;;;;;;1.17;0.80;;;29.60;92.70;;;;;;5103372;28;20462;-90
2022/06/30 13:18:27;;;;;;;5.73;0.97;;;29.90;94.10;;;;;;5102179;27;20869;-90